Time;durP1;ratioP1;P1;durP2;ratioP2;P2;SDS_P1;SDS_P2;PMS_P1;PMS_P2;Temp;Humidity;BMP_temperature;BMP_pressure;BME280_temperature;BME280_humidity;BME280_pressure;Samples;Min_cycle;Max_cycle;Signal;HPM_P1;HPM_P2
2023/09/14 00:03:25;;;;;;;8.77;3.03;;;;;;;;;;10449508;27;20063;-66
2023/09/14 00:08:29;;;;;;;7.53;3.58;;;;;;;;;;10453195;27;20058;-66
2023/09/14 00:13:28;;;;;;;7.68;3.42;;;;;;;;;;10449973;27;20511;-66
2023/09/14 00:18:27;;;;;;;6.30;2.90;;;;;;;;;;10455552;27;20499;-66
2023/09/14 00:23:27;;;;;;;6.32;3.05;;;;;;;;;;10452113;27;20082;-65
2023/09/14 00:28:25;;;;;;;7.95;3.53;;;;;;;;;;10456660;27;20093;-66
2023/09/14 00:33:23;;;;;;;7.80;3.33;;;;;;;;;;10452108;27;20085;-65
2023/09/14 00:38:22;;;;;;;8.10;3.08;;;;;;;;;;10442485;27;20507;-64
2023/09/14 00:43:22;;;;;;;9.77;3.20;;;;;;;;;;10443332;27;20411;-65
2023/09/14 00:48:23;;;;;;;10.43;3.10;;;;;;;;;;10446781;27;20086;-65
2023/09/14 00:53:21;;;;;;;7.45;2.83;;;;;;;;;;10456723;27;20443;-65
2023/09/14 00:58:20;;;;;;;5.20;3.25;;;;;;;;;;10457928;27;20062;-65
2023/09/14 01:03:20;;;;;;;7.65;2.97;;;;;;;;;;10456496;27;20070;-66
2023/09/14 01:08:19;;;;;;;9.93;4.28;;;;;;;;;;10444499;27;20097;-65
2023/09/14 01:13:23;;;;;;;6.45;3.03;;;;;;;;;;10455551;27;20074;-66
2023/09/14 01:18:26;;;;;;;4.97;2.85;;;;;;;;;;10459826;27;20059;-65
2023/09/14 01:23:38;;;;;;;5.47;3.67;;;;;;;;;;10457437;27;20070;-66
2023/09/14 01:28:39;;;;;;;7.35;3.42;;;;;;;;;;10442721;27;20098;-66
2023/09/14 01:33:37;;;;;;;6.68;3.33;;;;;;;;;;10440602;27;20456;-65
2023/09/14 01:38:37;;;;;;;7.93;3.70;;;;;;;;;;10450728;27;20062;-66
2023/09/14 01:43:35;;;;;;;12.43;3.70;;;;;;;;;;10455432;27;20059;-66
2023/09/14 01:48:36;;;;;;;7.25;3.20;;;;;;;;;;10438696;27;20114;-66
2023/09/14 01:53:34;;;;;;;5.05;2.80;;;;;;;;;;10435211;27;20078;-65
2023/09/14 01:58:32;;;;;;;5.40;3.28;;;;;;;;;;10436788;27;20067;-66
2023/09/14 02:03:30;;;;;;;8.27;3.28;;;;;;;;;;10435546;27;20472;-66
2023/09/14 02:08:30;;;;;;;5.68;3.83;;;;;;;;;;10440760;27;20066;-66
2023/09/14 02:13:28;;;;;;;7.60;3.50;;;;;;;;;;10455212;27;20084;-66
2023/09/14 02:18:27;;;;;;;12.25;3.33;;;;;;;;;;10439399;27;20066;-66
2023/09/14 02:23:25;;;;;;;9.63;3.50;;;;;;;;;;10456574;27;20541;-65
2023/09/14 02:28:25;;;;;;;6.32;3.20;;;;;;;;;;10439263;27;20086;-65
2023/09/14 02:33:23;;;;;;;4.95;3.00;;;;;;;;;;10451901;27;20070;-66
2023/09/14 02:38:22;;;;;;;8.13;3.33;;;;;;;;;;10455944;27;20529;-65
2023/09/14 02:43:20;;;;;;;8.10;3.13;;;;;;;;;;10433146;27;20058;-66
2023/09/14 02:48:21;;;;;;;5.97;2.80;;;;;;;;;;10452447;27;20158;-66
2023/09/14 02:53:19;;;;;;;6.55;3.30;;;;;;;;;;10454641;27;20166;-67
2023/09/14 02:58:18;;;;;;;9.07;2.83;;;;;;;;;;10436453;27;20400;-66
2023/09/14 03:03:17;;;;;;;7.93;3.47;;;;;;;;;;10434828;27;20074;-66
2023/09/14 03:08:17;;;;;;;7.70;3.05;;;;;;;;;;10432994;27;20082;-66
2023/09/14 03:13:15;;;;;;;8.25;3.13;;;;;;;;;;10434900;27;20073;-66
2023/09/14 03:18:14;;;;;;;7.45;3.33;;;;;;;;;;10432841;27;20556;-65
2023/09/14 03:23:12;;;;;;;6.25;2.95;;;;;;;;;;10446746;27;20066;-65
2023/09/14 03:28:12;;;;;;;10.70;3.70;;;;;;;;;;10451735;27;20086;-66
2023/09/14 03:33:11;;;;;;;6.13;3.22;;;;;;;;;;10436202;27;20081;-65
2023/09/14 03:38:10;;;;;;;9.50;3.17;;;;;;;;;;10451354;27;20070;-66
2023/09/14 03:43:09;;;;;;;5.57;2.95;;;;;;;;;;10448590;27;20089;-66
2023/09/14 03:48:08;;;;;;;10.98;4.28;;;;;;;;;;10453032;27;20078;-66
2023/09/14 03:53:08;;;;;;;6.47;3.15;;;;;;;;;;10453663;27;20538;-65
2023/09/14 03:58:06;;;;;;;8.80;3.90;;;;;;;;;;10458379;27;20058;-65
2023/09/14 04:03:05;;;;;;;5.72;3.58;;;;;;;;;;10443285;27;20050;-64
2023/09/14 04:08:07;;;;;;;7.03;3.20;;;;;;;;;;10459780;27;20577;-65
2023/09/14 04:13:24;;;;;;;4.72;3.72;;;;;;;;;;10461288;27;20550;-65
2023/09/14 04:18:22;;;;;;;7.57;3.78;;;;;;;;;;10457302;27;20074;-65
2023/09/14 04:23:22;;;;;;;7.00;3.47;;;;;;;;;;10457853;27;20081;-65
2023/09/14 04:28:22;;;;;;;9.27;3.20;;;;;;;;;;10446460;27;20510;-65
2023/09/14 04:33:20;;;;;;;7.10;3.42;;;;;;;;;;10438194;27;20063;-64
2023/09/14 04:38:19;;;;;;;9.75;3.88;;;;;;;;;;10461869;27;20062;-65
2023/09/14 04:43:19;;;;;;;4.57;3.33;;;;;;;;;;10457417;27;20074;-65
2023/09/14 04:48:17;;;;;;;10.52;3.78;;;;;;;;;;10460450;27;20067;-66
2023/09/14 04:53:15;;;;;;;8.27;4.28;;;;;;;;;;10443065;27;20077;-65
2023/09/14 04:58:14;;;;;;;8.43;3.50;;;;;;;;;;10436721;27;20070;-65
2023/09/14 05:03:13;;;;;;;7.80;3.30;;;;;;;;;;10454443;27;20081;-64
2023/09/14 05:08:12;;;;;;;8.50;3.60;;;;;;;;;;10456306;27;20100;-65
2023/09/14 05:13:10;;;;;;;7.70;3.50;;;;;;;;;;10461765;27;20626;-65
2023/09/14 05:18:08;;;;;;;10.15;4.10;;;;;;;;;;10458118;27;20070;-65
2023/09/14 05:23:08;;;;;;;10.40;3.45;;;;;;;;;;10459786;27;20631;-64
2023/09/14 05:28:07;;;;;;;6.93;3.72;;;;;;;;;;10455821;27;20074;-64
2023/09/14 05:33:07;;;;;;;10.25;3.97;;;;;;;;;;10435983;27;20086;-64
2023/09/14 05:38:06;;;;;;;8.48;3.28;;;;;;;;;;10441026;27;20066;-64
2023/09/14 05:43:05;;;;;;;10.90;3.53;;;;;;;;;;10445781;27;20067;-65
2023/09/14 05:48:05;;;;;;;7.22;2.90;;;;;;;;;;10454861;27;20073;-65
2023/09/14 05:53:05;;;;;;;10.45;3.97;;;;;;;;;;10451232;27;20082;-65
2023/09/14 05:58:03;;;;;;;15.40;4.10;;;;;;;;;;10439259;27;20552;-64
2023/09/14 06:03:03;;;;;;;7.40;3.70;;;;;;;;;;10452173;27;20077;-64
2023/09/14 06:08:02;;;;;;;11.77;3.55;;;;;;;;;;10446841;27;20074;-63
2023/09/14 06:13:01;;;;;;;11.38;3.55;;;;;;;;;;10431045;27;20089;-65
2023/09/14 06:18:00;;;;;;;9.10;3.78;;;;;;;;;;10449597;27;20074;-65
2023/09/14 06:23:00;;;;;;;6.07;4.22;;;;;;;;;;10453810;27;20075;-65
2023/09/14 06:27:58;;;;;;;10.00;3.45;;;;;;;;;;10456589;27;20083;-65
2023/09/14 06:32:56;;;;;;;9.30;3.97;;;;;;;;;;10457126;27;20081;-64
2023/09/14 06:37:54;;;;;;;13.85;4.53;;;;;;;;;;10451834;27;20085;-62
2023/09/14 06:42:54;;;;;;;8.18;3.53;;;;;;;;;;10451468;27;20079;-63
2023/09/14 06:47:52;;;;;;;9.18;3.88;;;;;;;;;;10457606;27;20062;-63
2023/09/14 06:52:51;;;;;;;14.57;5.28;;;;;;;;;;10451162;27;20093;-63
2023/09/14 06:57:49;;;;;;;12.77;4.30;;;;;;;;;;10448754;27;20540;-64
2023/09/14 07:02:50;;;;;;;12.45;4.82;;;;;;;;;;10446397;27;20077;-63
2023/09/14 07:07:49;;;;;;;10.07;4.38;;;;;;;;;;10450871;27;20067;-64
2023/09/14 07:12:48;;;;;;;10.88;4.78;;;;;;;;;;10448287;27;20078;-64
2023/09/14 07:17:47;;;;;;;10.88;4.50;;;;;;;;;;10445611;27;20070;-63
2023/09/14 07:22:47;;;;;;;10.43;4.10;;;;;;;;;;10455541;27;20491;-63
2023/09/14 07:27:45;;;;;;;12.63;5.65;;;;;;;;;;10448119;27;20078;-63
2023/09/14 07:32:43;;;;;;;10.40;4.35;;;;;;;;;;10456290;27;20074;-62
2023/09/14 07:37:42;;;;;;;13.25;4.22;;;;;;;;;;10452317;27;20499;-63
2023/09/14 07:42:42;;;;;;;10.07;4.65;;;;;;;;;;10443578;27;20075;-63
2023/09/14 07:47:40;;;;;;;6.65;3.50;;;;;;;;;;10465318;27;20838;-63
2023/09/14 07:52:41;;;;;;;13.38;4.75;;;;;;;;;;10455418;27;20074;-63
2023/09/14 07:57:39;;;;;;;5.90;3.63;;;;;;;;;;10463613;27;20081;-64
2023/09/14 08:02:39;;;;;;;15.48;5.20;;;;;;;;;;10454417;27;20108;-64
2023/09/14 08:07:37;;;;;;;12.85;4.47;;;;;;;;;;10454353;27;20074;-64
2023/09/14 08:12:37;;;;;;;8.07;4.60;;;;;;;;;;10454186;27;20078;-64
2023/09/14 08:17:35;;;;;;;13.45;3.78;;;;;;;;;;10454274;27;20070;-63
2023/09/14 08:22:36;;;;;;;13.07;4.78;;;;;;;;;;10453529;27;20078;-63
2023/09/14 08:27:35;;;;;;;13.52;4.38;;;;;;;;;;10451582;27;20066;-63
2023/09/14 08:32:33;;;;;;;10.88;4.68;;;;;;;;;;10455998;27;20074;-63
2023/09/14 08:37:31;;;;;;;15.38;5.90;;;;;;;;;;10454236;27;20439;-63
2023/09/14 08:42:31;;;;;;;10.38;4.97;;;;;;;;;;10466106;27;20063;-62
2023/09/14 08:47:29;;;;;;;9.90;4.60;;;;;;;;;;10460039;27;20074;-63
2023/09/14 08:52:28;;;;;;;14.77;5.43;;;;;;;;;;10455885;27;20071;-63
2023/09/14 08:57:26;;;;;;;10.90;4.32;;;;;;;;;;10460704;27;20069;-64
2023/09/14 09:02:27;;;;;;;12.90;4.20;;;;;;;;;;10460663;27;20178;-61
2023/09/14 09:07:26;;;;;;;14.02;3.55;;;;;;;;;;10456007;27;20069;-67
2023/09/14 09:12:24;;;;;;;11.90;3.97;;;;;;;;;;10454065;27;20070;-67
2023/09/14 09:17:23;;;;;;;16.45;4.15;;;;;;;;;;10439854;27;20067;-67
2023/09/14 09:22:23;;;;;;;8.90;4.25;;;;;;;;;;10456598;27;20074;-67
2023/09/14 09:27:27;;;;;;;10.77;5.03;;;;;;;;;;10452345;27;20086;-65
2023/09/14 09:32:25;;;;;;;12.63;4.20;;;;;;;;;;10458649;27;20074;-70
2023/09/14 09:37:25;;;;;;;14.50;4.78;;;;;;;;;;10451002;27;20074;-67
2023/09/14 09:42:24;;;;;;;16.30;4.65;;;;;;;;;;10458241;27;20062;-67
2023/09/14 09:47:23;;;;;;;20.30;4.35;;;;;;;;;;10427894;27;20063;-69
2023/09/14 09:52:21;;;;;;;10.30;3.67;;;;;;;;;;10457427;27;20073;-67
2023/09/14 09:57:21;;;;;;;13.80;4.32;;;;;;;;;;10462095;27;20066;-68
2023/09/14 10:02:28;;;;;;;15.63;4.45;;;;;;;;;;10456067;27;20062;-67
2023/09/14 10:07:26;;;;;;;11.93;4.47;;;;;;;;;;10456396;27;20066;-66
2023/09/14 10:12:27;;;;;;;11.70;4.25;;;;;;;;;;10459460;27;20066;-66
2023/09/14 10:17:30;;;;;;;19.50;4.93;;;;;;;;;;10458681;27;20070;-68
2023/09/14 10:22:29;;;;;;;19.10;5.60;;;;;;;;;;10456715;27;20089;-68
2023/09/14 10:27:30;;;;;;;14.68;4.78;;;;;;;;;;10457190;27;20074;-67
2023/09/14 10:32:30;;;;;;;20.67;5.45;;;;;;;;;;10455762;27;20063;-67
2023/09/14 10:37:29;;;;;;;20.23;5.00;;;;;;;;;;10452225;27;20085;-68
2023/09/14 10:42:27;;;;;;;21.52;5.32;;;;;;;;;;10453256;27;20073;-67
2023/09/14 10:47:31;;;;;;;18.67;5.43;;;;;;;;;;10451765;27;20062;-68
2023/09/14 10:52:30;;;;;;;17.45;5.40;;;;;;;;;;10459238;27;20507;-68
2023/09/14 10:57:30;;;;;;;17.48;5.03;;;;;;;;;;10455760;27;20078;-67
2023/09/14 11:02:46;;;;;;;17.73;4.32;;;;;;;;;;10451880;27;20077;-68
2023/09/14 11:07:55;;;;;;;20.02;4.80;;;;;;;;;;10456597;27;20074;-69
2023/09/14 11:13:24;;;;;;;11.93;5.13;;;;;;;;;;10457526;27;20511;-70
2023/09/14 11:18:33;;;;;;;21.00;4.63;;;;;;;;;;10453248;27;20533;-69
2023/09/14 11:23:35;;;;;;;21.45;6.10;;;;;;;;;;10449903;27;20070;-69
2023/09/14 11:28:36;;;;;;;19.48;6.65;;;;;;;;;;10453406;27;20078;-70
2023/09/14 11:33:36;;;;;;;21.67;5.88;;;;;;;;;;10448583;27;20909;-69
2023/09/14 11:38:39;;;;;;;20.38;5.20;;;;;;;;;;10450250;27;20055;-67
2023/09/14 11:44:01;;;;;;;14.77;4.43;;;;;;;;;;10451262;27;20073;-66
2023/09/14 11:49:23;;;;;;;16.95;5.70;;;;;;;;;;10453271;27;20070;-67
2023/09/14 11:54:29;;;;;;;11.57;4.80;;;;;;;;;;10433047;27;20093;-67
2023/09/14 11:59:29;;;;;;;17.58;5.43;;;;;;;;;;10434479;27;20071;-66
2023/09/14 12:04:29;;;;;;;22.35;5.28;;;;;;;;;;10438375;27;20081;-66
2023/09/14 12:09:39;;;;;;;18.17;4.78;;;;;;;;;;10447871;27;20059;-67
2023/09/14 12:14:38;;;;;;;20.40;5.88;;;;;;;;;;10455437;27;20078;-68
2023/09/14 12:19:44;;;;;;;20.88;4.82;;;;;;;;;;10460767;27;20191;-68
2023/09/14 12:24:44;;;;;;;23.65;5.57;;;;;;;;;;10458117;27;20104;-68
2023/09/14 12:29:43;;;;;;;20.80;4.95;;;;;;;;;;10457608;27;20116;-69
2023/09/14 12:34:41;;;;;;;16.55;5.47;;;;;;;;;;10456381;27;20067;-68
2023/09/14 12:39:45;;;;;;;21.55;6.72;;;;;;;;;;10458229;27;20078;-67
2023/09/14 12:44:45;;;;;;;11.75;5.15;;;;;;;;;;10454201;27;20069;-69
2023/09/14 12:49:43;;;;;;;17.85;5.53;;;;;;;;;;10460109;27;20095;-67
2023/09/14 12:54:42;;;;;;;21.80;4.90;;;;;;;;;;10456604;27;20063;-69
2023/09/14 12:59:56;;;;;;;23.08;5.05;;;;;;;;;;10458447;27;20074;-69
2023/09/14 13:04:56;;;;;;;20.80;4.87;;;;;;;;;;10455992;27;20063;-68
2023/09/14 13:10:06;;;;;;;24.90;5.22;;;;;;;;;;10458753;27;20073;-69
2023/09/14 13:15:13;;;;;;;18.40;6.10;;;;;;;;;;10458543;27;20070;-68
2023/09/14 13:20:13;;;;;;;19.17;4.40;;;;;;;;;;10454673;27;20074;-68
2023/09/14 13:25:11;;;;;;;17.88;5.30;;;;;;;;;;10455054;27;20074;-69
2023/09/14 13:30:10;;;;;;;15.48;4.68;;;;;;;;;;10459838;27;20074;-68
2023/09/14 13:35:09;;;;;;;17.33;4.90;;;;;;;;;;10456943;27;20075;-67
2023/09/14 13:40:14;;;;;;;14.38;4.95;;;;;;;;;;10454932;27;20518;-68
2023/09/14 13:45:13;;;;;;;13.98;4.38;;;;;;;;;;10453274;27;20067;-69
2023/09/14 13:50:11;;;;;;;17.55;5.30;;;;;;;;;;10459190;27;20063;-69
2023/09/14 13:55:11;;;;;;;15.18;4.20;;;;;;;;;;10454593;27;20105;-69
2023/09/14 14:00:10;;;;;;;15.23;4.68;;;;;;;;;;10457097;27;20066;-68
2023/09/14 14:05:09;;;;;;;11.95;5.40;;;;;;;;;;10452979;27;20466;-68
2023/09/14 14:10:08;;;;;;;19.63;6.15;;;;;;;;;;10457090;27;20074;-67
2023/09/14 14:15:09;;;;;;;17.08;5.10;;;;;;;;;;10457224;27;20075;-68
2023/09/14 14:20:15;;;;;;;14.63;4.47;;;;;;;;;;10456343;27;20067;-69
2023/09/14 14:25:13;;;;;;;18.75;4.55;;;;;;;;;;10454193;27;20093;-68
2023/09/14 14:30:13;;;;;;;15.70;5.03;;;;;;;;;;10455310;27;20097;-68
2023/09/14 14:35:11;;;;;;;10.50;5.40;;;;;;;;;;10452507;27;20077;-68
2023/09/14 14:40:12;;;;;;;10.65;4.78;;;;;;;;;;10455907;27;20071;-70
2023/09/14 14:45:33;;;;;;;16.50;4.03;;;;;;;;;;10451459;27;20788;-67
2023/09/14 14:50:34;;;;;;;14.02;4.78;;;;;;;;;;10451184;27;20078;-68
2023/09/14 14:55:32;;;;;;;13.50;4.82;;;;;;;;;;10452451;27;20071;-66
2023/09/14 15:00:32;;;;;;;14.55;4.95;;;;;;;;;;10452903;27;20078;-68
2023/09/14 15:05:32;;;;;;;26.38;5.03;;;;;;;;;;10447881;27;20085;-68
2023/09/14 15:10:31;;;;;;;18.88;4.65;;;;;;;;;;10451359;27;20076;-66
2023/09/14 15:15:30;;;;;;;11.55;4.88;;;;;;;;;;10451121;27;20074;-66
2023/09/14 15:20:30;;;;;;;17.48;4.85;;;;;;;;;;10455358;27;20082;-67
2023/09/14 15:25:31;;;;;;;14.98;4.75;;;;;;;;;;10453123;27;20435;-68
2023/09/14 15:30:29;;;;;;;13.32;5.28;;;;;;;;;;10454728;27;20078;-67
2023/09/14 15:35:30;;;;;;;16.77;5.70;;;;;;;;;;10456051;27;20082;-67
2023/09/14 15:40:28;;;;;;;12.32;5.38;;;;;;;;;;10453417;27;20140;-66
2023/09/14 15:45:26;;;;;;;15.25;4.72;;;;;;;;;;10436201;27;20074;-66
2023/09/14 15:50:25;;;;;;;16.08;4.93;;;;;;;;;;10447435;27;20499;-65
2023/09/14 15:55:24;;;;;;;12.60;4.70;;;;;;;;;;10454568;27;20086;-67
2023/09/14 16:00:29;;;;;;;10.43;3.67;;;;;;;;;;10458243;27;20070;-66
2023/09/14 16:05:27;;;;;;;9.32;5.32;;;;;;;;;;10453672;27;20075;-68
2023/09/14 16:10:27;;;;;;;12.55;4.63;;;;;;;;;;10446645;27;20085;-67
2023/09/14 16:15:25;;;;;;;9.63;4.78;;;;;;;;;;10455144;27;20066;-67
2023/09/14 16:20:23;;;;;;;17.50;5.03;;;;;;;;;;10455958;27;20091;-67
2023/09/14 16:25:22;;;;;;;8.45;4.85;;;;;;;;;;10435742;27;20607;-67
2023/09/14 16:30:21;;;;;;;14.15;4.90;;;;;;;;;;10450574;27;20071;-67
2023/09/14 16:35:20;;;;;;;12.23;6.25;;;;;;;;;;10449835;27;20082;-67
2023/09/14 16:40:19;;;;;;;22.65;15.57;;;;;;;;;;10448790;27;20077;-68
2023/09/14 16:45:17;;;;;;;16.00;8.80;;;;;;;;;;10448376;27;20078;-67
2023/09/14 16:50:17;;;;;;;10.75;4.70;;;;;;;;;;10451327;27;20085;-66
2023/09/14 16:55:16;;;;;;;14.55;4.78;;;;;;;;;;10450504;27;20070;-67
2023/09/14 17:00:14;;;;;;;13.65;5.22;;;;;;;;;;10450613;27;20105;-66
2023/09/14 17:05:14;;;;;;;14.35;4.63;;;;;;;;;;10465237;27;20077;-67
2023/09/14 17:10:13;;;;;;;8.63;4.32;;;;;;;;;;10457708;27;20078;-66
2023/09/14 17:15:12;;;;;;;13.32;4.38;;;;;;;;;;10458303;27;20058;-67
2023/09/14 17:20:12;;;;;;;10.15;4.97;;;;;;;;;;10461179;27;20077;-67
2023/09/14 17:25:10;;;;;;;14.38;6.03;;;;;;;;;;10454263;27;20079;-67
2023/09/14 17:30:11;;;;;;;9.10;5.00;;;;;;;;;;10454277;27;20086;-66
2023/09/14 17:35:10;;;;;;;12.45;5.38;;;;;;;;;;10456923;27;20089;-66
2023/09/14 17:40:09;;;;;;;10.70;4.60;;;;;;;;;;10456787;27;20079;-66
2023/09/14 17:45:08;;;;;;;15.68;6.03;;;;;;;;;;10455650;27;20554;-66
2023/09/14 17:50:10;;;;;;;18.58;5.93;;;;;;;;;;10454465;27;20063;-66
2023/09/14 17:55:08;;;;;;;14.85;5.63;;;;;;;;;;10454228;27;20091;-66
2023/09/14 18:00:12;;;;;;;13.90;5.68;;;;;;;;;;10456353;27;20073;-66
2023/09/14 18:05:12;;;;;;;19.58;6.10;;;;;;;;;;10456759;27;20073;-66
2023/09/14 18:10:12;;;;;;;15.88;7.05;;;;;;;;;;10456940;27;20074;-67
2023/09/14 18:15:13;;;;;;;15.18;5.82;;;;;;;;;;10457220;27;20082;-66
2023/09/14 18:20:15;;;;;;;18.60;6.60;;;;;;;;;;10454442;27;20471;-66
2023/09/14 18:25:13;;;;;;;17.23;6.38;;;;;;;;;;10459821;27;20066;-66
2023/09/14 18:30:12;;;;;;;15.18;6.32;;;;;;;;;;10455929;27;20087;-68
2023/09/14 18:35:10;;;;;;;10.73;6.07;;;;;;;;;;10458199;27;20077;-66
2023/09/14 18:40:12;;;;;;;12.45;5.65;;;;;;;;;;10453523;27;20078;-65
2023/09/14 18:45:11;;;;;;;12.82;5.85;;;;;;;;;;10454003;27;20968;-66
2023/09/14 18:50:10;;;;;;;12.05;5.95;;;;;;;;;;10457777;27;20077;-66
2023/09/14 18:55:11;;;;;;;14.73;6.43;;;;;;;;;;10452732;27;20078;-66
2023/09/14 19:00:11;;;;;;;15.02;7.18;;;;;;;;;;10450463;27;20093;-66
2023/09/14 19:05:09;;;;;;;16.05;7.65;;;;;;;;;;10453627;27;20078;-66
2023/09/14 19:10:08;;;;;;;12.18;5.95;;;;;;;;;;10454851;27;20066;-65
2023/09/14 19:15:08;;;;;;;10.85;6.65;;;;;;;;;;10450362;27;20083;-65
2023/09/14 19:20:08;;;;;;;12.23;6.65;;;;;;;;;;10455403;27;20074;-66
2023/09/14 19:25:06;;;;;;;10.52;7.18;;;;;;;;;;10449244;27;20075;-65
2023/09/14 19:30:06;;;;;;;12.60;6.95;;;;;;;;;;10454253;27;20086;-66
2023/09/14 19:35:06;;;;;;;16.85;6.53;;;;;;;;;;10454634;27;20083;-65
2023/09/14 19:40:04;;;;;;;11.95;6.85;;;;;;;;;;10452843;27;20074;-65
2023/09/14 19:45:03;;;;;;;8.88;6.25;;;;;;;;;;10454775;27;20078;-67
2023/09/14 19:50:04;;;;;;;11.98;6.13;;;;;;;;;;10451274;27;20074;-66
2023/09/14 19:55:04;;;;;;;12.43;7.15;;;;;;;;;;10453500;27;20071;-66
2023/09/14 20:00:03;;;;;;;14.95;7.05;;;;;;;;;;10455828;27;20093;-66
2023/09/14 20:05:06;;;;;;;8.85;6.15;;;;;;;;;;10454777;27;20081;-66
2023/09/14 20:10:06;;;;;;;12.10;6.15;;;;;;;;;;10454059;27;20078;-66
2023/09/14 20:15:06;;;;;;;9.18;6.38;;;;;;;;;;10453256;27;20066;-66
2023/09/14 20:20:07;;;;;;;14.93;5.65;;;;;;;;;;10450382;27;20089;-66
2023/09/14 20:25:08;;;;;;;10.00;6.00;;;;;;;;;;10452113;27;20071;-66
2023/09/14 20:30:09;;;;;;;19.05;7.32;;;;;;;;;;10447907;27;20491;-66
2023/09/14 20:35:08;;;;;;;11.30;6.07;;;;;;;;;;10456086;27;20889;-65
2023/09/14 20:40:10;;;;;;;11.75;6.47;;;;;;;;;;10457610;27;20085;-65
2023/09/14 20:45:11;;;;;;;12.82;7.63;;;;;;;;;;10460521;27;20078;-65
2023/09/14 20:50:12;;;;;;;11.82;6.82;;;;;;;;;;10457519;27;20506;-65
2023/09/14 20:55:13;;;;;;;12.23;6.53;;;;;;;;;;10455793;27;20713;-67
2023/09/14 21:00:15;;;;;;;14.55;6.20;;;;;;;;;;10454188;27;20508;-66
2023/09/14 21:05:14;;;;;;;15.80;6.85;;;;;;;;;;10454792;27;20062;-65
2023/09/14 21:10:14;;;;;;;14.13;7.20;;;;;;;;;;10456941;27;20161;-65
2023/09/14 21:15:12;;;;;;;9.70;7.28;;;;;;;;;;10452389;27;20070;-65
2023/09/14 21:20:10;;;;;;;17.98;7.72;;;;;;;;;;10461730;27;20098;-64
2023/09/14 21:25:09;;;;;;;16.92;7.85;;;;;;;;;;10457285;27;20075;-65
2023/09/14 21:30:09;;;;;;;19.40;7.75;;;;;;;;;;10457185;27;20078;-66
2023/09/14 21:35:08;;;;;;;15.85;7.35;;;;;;;;;;10455220;27;20982;-66
2023/09/14 21:40:07;;;;;;;12.52;7.60;;;;;;;;;;10439487;27;20140;-64
2023/09/14 21:45:06;;;;;;;15.35;7.70;;;;;;;;;;10457977;27;20583;-65
2023/09/14 21:50:08;;;;;;;15.35;8.23;;;;;;;;;;10456838;27;20071;-65
2023/09/14 21:55:07;;;;;;;18.98;8.18;;;;;;;;;;10456578;27;20078;-66
2023/09/14 22:00:13;;;;;;;15.95;7.40;;;;;;;;;;10454200;27;20078;-65
2023/09/14 22:05:12;;;;;;;16.67;8.27;;;;;;;;;;10453581;27;20086;-65
2023/09/14 22:10:11;;;;;;;16.52;7.53;;;;;;;;;;10457085;27;20074;-65
2023/09/14 22:15:10;;;;;;;12.05;8.52;;;;;;;;;;10452927;27;20074;-66
2023/09/14 22:20:17;;;;;;;16.35;8.63;;;;;;;;;;10453478;27;20078;-66
2023/09/14 22:25:18;;;;;;;13.23;9.10;;;;;;;;;;10456811;27;20066;-65
2023/09/14 22:30:17;;;;;;;11.95;8.55;;;;;;;;;;10454204;27;20078;-66
2023/09/14 22:35:16;;;;;;;15.35;8.48;;;;;;;;;;10457326;27;20507;-66
2023/09/14 22:40:15;;;;;;;12.63;8.40;;;;;;;;;;10451995;27;20067;-66
2023/09/14 22:45:14;;;;;;;9.05;7.80;;;;;;;;;;10449313;27;20495;-66
2023/09/14 22:50:13;;;;;;;9.00;7.80;;;;;;;;;;10454567;27;20527;-66
2023/09/14 22:55:12;;;;;;;16.88;8.07;;;;;;;;;;10453645;27;20071;-64
2023/09/14 23:00:12;;;;;;;18.52;8.02;;;;;;;;;;10453118;27;20081;-66
2023/09/14 23:05:13;;;;;;;14.23;8.20;;;;;;;;;;10449565;27;20078;-66
2023/09/14 23:10:13;;;;;;;14.23;8.70;;;;;;;;;;10451003;27;20066;-67
2023/09/14 23:15:16;;;;;;;10.82;8.10;;;;;;;;;;10453185;27;20074;-66
2023/09/14 23:20:23;;;;;;;12.07;8.60;;;;;;;;;;10453398;27;20068;-66
2023/09/14 23:25:22;;;;;;;9.93;7.75;;;;;;;;;;10454690;27;20077;-66
2023/09/14 23:30:21;;;;;;;16.35;8.93;;;;;;;;;;10450251;27;20607;-66
2023/09/14 23:35:22;;;;;;;10.32;8.40;;;;;;;;;;10452330;27;20491;-65
2023/09/14 23:40:32;;;;;;;8.77;7.90;;;;;;;;;;10453166;27;20527;-66
2023/09/14 23:45:31;;;;;;;10.27;9.18;;;;;;;;;;10454350;27;20085;-65
2023/09/14 23:50:31;;;;;;;8.45;7.75;;;;;;;;;;10453397;27;20086;-66
2023/09/14 23:55:29;;;;;;;15.80;8.95;;;;;;;;;;10438088;27;20081;-66
